createdAt,value
2018-11-21T00:02:37.425Z,67.60
2018-11-21T00:05:17.444Z,67.90
2018-11-21T00:07:56.749Z,67.70
2018-11-21T00:10:36.755Z,67.70
2018-11-21T00:13:16.602Z,68.00
2018-11-21T00:15:56.194Z,68.00
2018-11-21T00:18:35.895Z,67.80
2018-11-21T00:21:15.663Z,67.80
2018-11-21T00:23:55.325Z,67.90
2018-11-21T00:26:34.894Z,67.80
2018-11-21T00:29:14.337Z,67.80
2018-11-21T00:31:52.175Z,67.80
2018-11-21T00:34:32.481Z,67.80
2018-11-21T00:37:12.438Z,67.80
2018-11-21T00:39:53.322Z,67.60
2018-11-21T00:42:33.277Z,67.80
2018-11-21T00:45:13.060Z,67.80
2018-11-21T00:47:52.561Z,68.00
2018-11-21T00:50:32.226Z,67.80
2018-11-21T00:53:11.877Z,67.50
2018-11-21T00:55:51.904Z,67.50
2018-11-21T00:58:31.667Z,67.50
2018-11-21T01:01:11.263Z,67.50
2018-11-21T01:03:50.916Z,67.40
2018-11-21T01:06:30.643Z,67.60
2018-11-21T01:08:57.755Z,67.60
2018-11-21T01:11:44.491Z,67.60
2018-11-21T01:14:31.134Z,67.70
2018-11-21T01:17:10.965Z,67.80
2018-11-21T01:19:50.524Z,67.80
2018-11-21T01:22:30.470Z,67.90
2018-11-21T01:25:09.971Z,68.10
2018-11-21T01:27:49.865Z,68.30
2018-11-21T01:30:29.588Z,68.30
2018-11-21T01:33:09.720Z,68.30
2018-11-21T01:35:48.733Z,68.50
2018-11-21T01:38:28.113Z,68.20
2018-11-21T01:41:08.281Z,68.20
2018-11-21T01:43:48.539Z,68.30
2018-11-21T01:46:28.104Z,68.40
2018-11-21T01:49:07.807Z,68.30
2018-11-21T01:51:47.424Z,68.20
2018-11-21T01:54:27.096Z,68.10
2018-11-21T01:57:06.696Z,68.10
2018-11-21T01:59:46.204Z,68.00
2018-11-21T02:02:26.536Z,68.00
2018-11-21T02:05:06.179Z,68.40
2018-11-21T02:07:45.552Z,68.40
2018-11-21T02:10:25.187Z,68.90
2018-11-21T02:13:04.737Z,69.00
2018-11-21T02:15:45.096Z,68.90
2018-11-21T02:18:24.698Z,68.90
2018-11-21T02:21:04.394Z,68.60
2018-11-21T02:23:44.190Z,68.60
2018-11-21T02:26:23.825Z,68.70
2018-11-21T02:29:04.015Z,68.90
2018-11-21T02:31:43.659Z,69.30
2018-11-21T02:34:23.328Z,69.30
2018-11-21T02:36:50.732Z,69.10
2018-11-21T02:39:37.363Z,68.90
2018-11-21T02:42:24.029Z,68.50
2018-11-21T02:45:04.206Z,68.60
2018-11-21T02:47:43.988Z,68.70
2018-11-21T02:50:23.449Z,68.60
2018-11-21T02:53:03.209Z,68.50
2018-11-21T02:55:42.845Z,68.90
2018-11-21T02:58:22.399Z,69.10
2018-11-21T03:01:02.014Z,69.20
2018-11-21T03:03:41.716Z,69.10
2018-11-21T03:06:21.669Z,69.70
2018-11-21T03:09:01.323Z,69.70
2018-11-21T03:11:40.982Z,70.20
2018-11-21T03:14:20.773Z,70.40
2018-11-21T03:17:00.585Z,70.10
2018-11-21T03:19:40.387Z,69.70
2018-11-21T03:22:20.097Z,69.60
2018-11-21T03:24:59.849Z,69.70
2018-11-21T03:27:39.728Z,70.40
2018-11-21T03:30:19.865Z,70.40
2018-11-21T03:32:59.266Z,70.10
2018-11-21T03:35:38.912Z,70.50
2018-11-21T03:38:18.820Z,70.30
2018-11-21T03:40:58.469Z,70.20
2018-11-21T03:43:38.350Z,70.40
2018-11-21T03:46:18.071Z,70.60
2018-11-21T03:48:57.821Z,70.10
2018-11-21T03:51:38.036Z,70.00
2018-11-21T03:54:17.815Z,70.40
2018-11-21T03:56:57.436Z,70.80
2018-11-21T03:59:37.195Z,71.20
2018-11-21T04:02:16.853Z,70.70
2018-11-21T04:04:56.576Z,70.30
2018-11-21T04:07:36.552Z,70.70
2018-11-21T04:10:16.332Z,71.70
2018-11-21T04:12:55.996Z,71.90
2018-11-21T04:15:35.614Z,72.40
2018-11-21T04:18:15.125Z,72.10
2018-11-21T04:20:54.718Z,72.10
2018-11-21T04:23:34.275Z,71.30
2018-11-21T04:26:14.618Z,70.60
2018-11-21T04:28:54.825Z,71.40
2018-11-21T04:31:34.227Z,71.20
2018-11-21T04:34:13.943Z,70.80
2018-11-21T04:36:53.682Z,70.40
2018-11-21T04:39:33.231Z,70.70
2018-11-21T04:42:13.086Z,70.40
2018-11-21T04:44:53.447Z,70.70
2018-11-21T04:47:33.506Z,71.40
2018-11-21T04:50:13.385Z,71.70
2018-11-21T04:52:53.230Z,72.40
2018-11-21T04:55:32.625Z,72.20
2018-11-21T04:58:12.158Z,72.40
2018-11-21T05:00:51.882Z,72.70
2018-11-21T05:06:44.489Z,73.00
2018-11-21T05:09:24.238Z,73.70
2018-11-21T05:12:04.067Z,72.90
2018-11-21T05:14:43.793Z,72.40
2018-11-21T05:17:23.869Z,73.10
2018-11-21T05:20:03.416Z,73.60
2018-11-21T05:22:43.551Z,73.30
2018-11-21T05:25:23.203Z,73.50
2018-11-21T05:28:03.158Z,74.00
2018-11-21T05:30:43.164Z,73.60
2018-11-21T05:33:24.546Z,73.70
2018-11-21T05:36:04.867Z,73.60
2018-11-21T05:38:44.342Z,73.30
2018-11-21T05:41:23.871Z,73.10
2018-11-21T05:44:03.444Z,73.30
2018-11-21T05:46:43.305Z,72.50
2018-11-21T05:49:22.893Z,72.00
2018-11-21T05:51:50.035Z,71.90
2018-11-21T05:54:36.691Z,71.70
2018-11-21T05:57:16.376Z,71.40
2018-11-21T05:59:56.199Z,71.50
2018-11-21T06:02:35.782Z,71.20
2018-11-21T06:05:15.319Z,70.80
2018-11-21T06:07:55.208Z,71.10
2018-11-21T06:10:34.977Z,70.70
2018-11-21T06:13:02.078Z,70.70
2018-11-21T06:15:48.708Z,70.80
2018-11-21T06:18:28.477Z,70.60
2018-11-21T06:21:08.442Z,70.50
2018-11-21T06:23:49.013Z,70.80
2018-11-21T06:26:28.384Z,70.90
2018-11-21T06:29:08.062Z,71.70
2018-11-21T06:31:47.694Z,71.90
2018-11-21T06:34:32.747Z,71.70
2018-11-21T06:37:07.223Z,71.50
2018-11-21T06:39:46.787Z,71.10
2018-11-21T06:42:13.922Z,70.70
2018-11-21T06:45:00.544Z,71.40
2018-11-21T06:47:40.188Z,71.40
2018-11-21T06:50:19.911Z,71.10
2018-11-21T06:52:59.379Z,71.30
2018-11-21T06:55:39.115Z,71.50
2018-11-21T06:58:18.712Z,71.80
2018-11-21T07:00:58.664Z,72.00
2018-11-21T07:03:25.760Z,71.50
2018-11-21T07:06:13.010Z,71.70
2018-11-21T07:08:59.695Z,71.80
2018-11-21T07:11:27.100Z,71.40
2018-11-21T07:14:13.823Z,71.20
2018-11-21T07:16:53.399Z,71.10
2018-11-21T07:19:32.905Z,71.40
2018-11-21T07:22:12.318Z,71.60
2018-11-21T07:24:52.408Z,71.20
2018-11-21T07:27:32.064Z,71.60
2018-11-21T07:30:13.089Z,71.70
2018-11-21T07:32:53.196Z,71.20
2018-11-21T07:35:32.787Z,71.40
2018-11-21T07:37:59.939Z,71.60
2018-11-21T07:40:46.588Z,71.90
2018-11-21T07:43:33.241Z,71.70
2018-11-21T07:46:19.907Z,71.70
2018-11-21T07:48:59.751Z,72.00
2018-11-21T07:51:39.335Z,71.70
2018-11-21T07:54:18.821Z,72.50
2018-11-21T07:57:00.954Z,72.60
2018-11-21T07:59:40.971Z,72.00
2018-11-21T08:02:25.287Z,71.60
2018-11-21T08:05:24.947Z,71.70
2018-11-21T08:08:11.714Z,71.50
2018-11-21T08:11:17.960Z,71.60
2018-11-21T08:14:24.147Z,71.20
2018-11-21T08:17:30.367Z,71.40
2018-11-21T08:20:29.510Z,71.40
2018-11-21T08:23:29.132Z,71.60
2018-11-21T08:26:23.412Z,71.30
2018-11-21T08:28:50.573Z,72.00
2018-11-21T08:31:37.292Z,72.60
2018-11-21T08:34:23.965Z,72.40
2018-11-21T08:37:03.517Z,72.20
2018-11-21T08:39:43.549Z,71.70
2018-11-21T08:42:23.186Z,71.80
2018-11-21T08:45:03.060Z,71.60
2018-11-21T08:47:42.694Z,71.30
2018-11-21T08:50:22.358Z,70.50
2018-11-21T08:53:02.348Z,70.50
2018-11-21T08:55:29.417Z,70.70
2018-11-21T08:58:16.107Z,70.80
2018-11-21T09:01:02.784Z,70.80
2018-11-21T09:03:49.431Z,70.90
2018-11-21T09:06:29.176Z,71.20
2018-11-21T09:08:56.621Z,71.10
2018-11-21T09:11:43.284Z,70.90
2018-11-21T09:14:23.466Z,70.90
2018-11-21T09:17:03.154Z,70.80
2018-11-21T09:19:30.652Z,71.30
2018-11-21T09:22:17.243Z,71.70
2018-11-21T09:25:05.072Z,71.70
2018-11-21T09:27:44.730Z,71.60
2018-11-21T09:30:24.285Z,71.10
2018-11-21T09:33:04.161Z,70.60
2018-11-21T09:35:43.799Z,70.30
2018-11-21T09:38:24.094Z,70.40
2018-11-21T09:41:04.568Z,70.60
2018-11-21T09:43:43.905Z,70.50
2018-11-21T09:46:23.717Z,70.80
2018-11-21T09:49:03.114Z,70.60
2018-11-21T09:51:42.973Z,70.50
2018-11-21T09:54:23.070Z,71.10
2018-11-21T09:57:03.437Z,70.90
2018-11-21T09:59:43.305Z,70.70
2018-11-21T10:02:23.585Z,70.30
2018-11-21T10:05:03.175Z,70.50
2018-11-21T10:07:42.918Z,70.20
2018-11-21T10:10:23.123Z,70.40
2018-11-21T10:13:02.756Z,70.40
2018-11-21T10:15:42.498Z,70.70
2018-11-21T10:18:09.670Z,70.50
2018-11-21T10:20:56.331Z,70.80
2018-11-21T10:23:36.039Z,70.80
2018-11-21T10:26:15.944Z,71.20
2018-11-21T10:28:55.500Z,70.80
2018-11-21T10:31:35.385Z,70.70
2018-11-21T10:34:02.590Z,71.00
2018-11-21T10:36:49.281Z,71.50
2018-11-21T10:39:35.981Z,71.10
2018-11-21T10:42:15.472Z,70.70
2018-11-21T10:44:55.476Z,71.10
2018-11-21T10:47:35.368Z,71.50
2018-11-21T10:50:15.132Z,71.70
2018-11-21T10:52:54.755Z,71.60
2018-11-21T10:55:34.584Z,71.20
2018-11-21T10:58:14.344Z,71.10
2018-11-21T11:01:13.561Z,71.50
2018-11-21T11:04:16.316Z,71.10
2018-11-21T11:07:15.974Z,70.70
2018-11-21T11:10:14.979Z,70.50
2018-11-21T11:12:53.542Z,71.20
2018-11-21T11:15:59.806Z,70.60
2018-11-21T11:18:59.047Z,70.40
2018-11-21T11:21:55.908Z,70.70
2018-11-21T11:24:55.789Z,70.50
2018-11-21T11:27:55.350Z,70.60
2018-11-21T11:33:56.516Z,70.20
2018-11-21T11:36:55.620Z,70.50
2018-11-21T11:39:54.909Z,70.90
2018-11-21T11:42:54.562Z,71.10
2018-11-21T11:46:00.284Z,70.70
2018-11-21T11:48:56.813Z,70.20
2018-11-21T11:51:56.049Z,71.30
2018-11-21T11:54:42.740Z,71.30
2018-11-21T11:57:49.037Z,70.60
2018-11-21T12:00:35.712Z,70.40
2018-11-21T12:03:41.936Z,70.10
2018-11-21T12:10:00.410Z,70.30
2018-11-21T12:12:59.512Z,70.20
2018-11-21T12:16:04.943Z,70.80
2018-11-21T12:19:04.594Z,70.80
2018-11-21T12:25:07.585Z,70.60
2018-11-21T12:28:07.146Z,70.20
2018-11-21T12:31:06.897Z,70.20
2018-11-21T12:34:09.494Z,70.20
2018-11-21T12:37:09.281Z,70.60
2018-11-21T12:40:11.338Z,70.30
2018-11-21T12:43:13.622Z,70.20
2018-11-21T12:46:08.351Z,70.20
2018-11-21T12:49:01.308Z,70.60
2018-11-21T12:52:00.368Z,71.10
2018-11-21T12:54:59.474Z,70.90
2018-11-21T12:58:05.651Z,70.80
2018-11-21T13:00:52.375Z,70.20
2018-11-21T13:03:58.622Z,70.40
2018-11-21T13:06:58.264Z,70.40
2018-11-21T13:09:58.143Z,70.60
2018-11-21T13:12:43.653Z,70.50
2018-11-21T13:15:43.647Z,70.00
2018-11-21T13:18:41.593Z,69.90
2018-11-21T13:21:29.330Z,70.20
2018-11-21T13:24:28.430Z,70.20
2018-11-21T13:27:27.562Z,70.40
2018-11-21T13:30:26.511Z,70.40
2018-11-21T13:33:26.317Z,70.20
2018-11-21T13:36:25.414Z,70.00
2018-11-21T13:39:12.956Z,70.20
2018-11-21T13:42:19.244Z,70.30
2018-11-21T13:48:23.234Z,70.10
2018-11-21T13:51:14.770Z,70.30
2018-11-21T13:54:14.635Z,70.40
2018-11-21T13:56:41.752Z,70.50
2018-11-21T13:59:28.449Z,70.40
2018-11-21T14:02:15.136Z,70.20
2018-11-21T14:04:55.447Z,70.10
2018-11-21T14:07:35.689Z,70.30
2018-11-21T14:10:15.204Z,70.20
2018-11-21T14:12:54.847Z,70.10
2018-11-21T14:15:34.601Z,69.90
2018-11-21T14:18:14.311Z,70.10
2018-11-21T14:20:53.812Z,70.00
2018-11-21T14:23:33.994Z,69.60
2018-11-21T14:26:13.684Z,70.30
2018-11-21T14:28:53.541Z,70.40
2018-11-21T14:31:33.841Z,70.80
2018-11-21T14:34:14.797Z,70.50
2018-11-21T14:36:55.120Z,71.10
2018-11-21T14:39:34.745Z,71.10
2018-11-21T14:42:14.341Z,71.40
2018-11-21T14:44:53.931Z,71.70
2018-11-21T14:47:21.104Z,71.60
2018-11-21T14:50:09.990Z,70.90
2018-11-21T14:52:49.918Z,70.60
2018-11-21T14:55:29.805Z,71.50
2018-11-21T14:58:10.009Z,71.50
2018-11-21T15:00:50.589Z,70.60
2018-11-21T15:03:30.941Z,70.40
2018-11-21T15:06:10.756Z,69.90
2018-11-21T15:08:50.785Z,70.10
2018-11-21T15:11:30.420Z,71.20
2018-11-21T15:13:57.593Z,71.60
2018-11-21T15:16:44.255Z,71.20
2018-11-21T15:19:24.247Z,71.10
2018-11-21T15:22:04.180Z,70.80
2018-11-21T15:24:41.984Z,71.20
2018-11-21T15:27:09.176Z,71.20
2018-11-21T15:29:36.330Z,71.20
2018-11-21T15:32:03.828Z,70.60
2018-11-21T15:34:50.506Z,70.70
2018-11-21T15:37:28.651Z,70.90
2018-11-21T15:40:17.013Z,70.60
2018-11-21T15:42:44.125Z,70.30
2018-11-21T15:45:13.356Z,70.40
2018-11-21T15:48:00.889Z,70.50
2018-11-21T15:50:47.571Z,70.50
2018-11-21T15:53:27.326Z,70.50
2018-11-21T15:56:07.294Z,70.60
2018-11-21T15:58:47.573Z,70.60
2018-11-21T16:01:29.547Z,70.80
2018-11-21T16:04:08.953Z,70.70
2018-11-21T16:06:48.810Z,70.50
2018-11-21T16:09:28.407Z,70.30
2018-11-21T16:12:08.196Z,70.40
2018-11-21T16:14:47.956Z,70.40
2018-11-21T16:17:27.780Z,70.30
2018-11-21T16:19:54.912Z,70.10
2018-11-21T16:22:41.863Z,70.10
2018-11-21T16:25:22.219Z,70.40
2018-11-21T16:34:11.869Z,70.00
2018-11-21T16:36:51.684Z,70.50
2018-11-21T16:39:31.366Z,70.40
2018-11-21T16:42:11.291Z,70.40
2018-11-21T16:44:50.684Z,70.20
2018-11-21T16:47:17.912Z,70.20
2018-11-21T16:50:06.518Z,70.00
2018-11-21T16:52:46.974Z,69.90
2018-11-21T16:55:26.916Z,70.10
2018-11-21T16:58:09.945Z,69.80
2018-11-21T17:00:49.693Z,69.90
2018-11-21T17:03:29.360Z,69.90
2018-11-21T17:06:09.132Z,69.80
2018-11-21T17:08:49.150Z,69.80
2018-11-21T17:11:28.552Z,70.00
2018-11-21T17:13:56.108Z,70.00
2018-11-21T17:16:42.805Z,70.00
2018-11-21T17:19:29.835Z,70.10
2018-11-21T17:22:09.284Z,70.00
2018-11-21T17:24:49.018Z,70.00
